sensor_id;sensor_type;location;lat;lon;timestamp;temperature;humidity
23289;DHT22;11813;50.834;4.280;2022-08-21T00:00:43;17.40;99.90
23289;DHT22;11813;50.834;4.280;2022-08-21T00:03:10;17.40;99.90
23289;DHT22;11813;50.834;4.280;2022-08-21T00:05:39;17.40;99.90
23289;DHT22;11813;50.834;4.280;2022-08-21T00:08:06;17.40;99.90
23289;DHT22;11813;50.834;4.280;2022-08-21T00:10:31;17.40;99.90
23289;DHT22;11813;50.834;4.280;2022-08-21T00:12:57;17.40;99.90
23289;DHT22;11813;50.834;4.280;2022-08-21T00:15:27;17.30;99.90
23289;DHT22;11813;50.834;4.280;2022-08-21T00:17:55;17.20;99.90
23289;DHT22;11813;50.834;4.280;2022-08-21T00:20:21;17.20;99.90
23289;DHT22;11813;50.834;4.280;2022-08-21T00:22:47;17.10;99.90
23289;DHT22;11813;50.834;4.280;2022-08-21T00:25:14;17.10;99.90
23289;DHT22;11813;50.834;4.280;2022-08-21T00:27:41;17.10;99.90
23289;DHT22;11813;50.834;4.280;2022-08-21T00:30:13;17.10;99.90
23289;DHT22;11813;50.834;4.280;2022-08-21T00:32:40;17.00;99.90
23289;DHT22;11813;50.834;4.280;2022-08-21T00:35:09;16.90;99.90
23289;DHT22;11813;50.834;4.280;2022-08-21T00:37:37;16.80;99.90
23289;DHT22;11813;50.834;4.280;2022-08-21T00:40:04;16.80;99.90
23289;DHT22;11813;50.834;4.280;2022-08-21T00:42:29;16.70;99.90
23289;DHT22;11813;50.834;4.280;2022-08-21T00:44:56;16.70;99.90
23289;DHT22;11813;50.834;4.280;2022-08-21T00:47:21;16.80;99.90
23289;DHT22;11813;50.834;4.280;2022-08-21T00:49:47;16.70;99.90
23289;DHT22;11813;50.834;4.280;2022-08-21T00:52:18;16.70;99.90
23289;DHT22;11813;50.834;4.280;2022-08-21T00:54:45;16.70;99.90
23289;DHT22;11813;50.834;4.280;2022-08-21T00:57:19;16.70;99.90
23289;DHT22;11813;50.834;4.280;2022-08-21T00:59:48;16.70;99.90
23289;DHT22;11813;50.834;4.280;2022-08-21T01:02:16;16.70;99.90
23289;DHT22;11813;50.834;4.280;2022-08-21T01:04:42;16.60;99.90
23289;DHT22;11813;50.834;4.280;2022-08-21T01:07:08;16.60;99.90
23289;DHT22;11813;50.834;4.280;2022-08-21T01:09:34;16.60;99.90
23289;DHT22;11813;50.834;4.280;2022-08-21T01:12:00;16.60;99.90
23289;DHT22;11813;50.834;4.280;2022-08-21T01:14:27;16.60;99.90
23289;DHT22;11813;50.834;4.280;2022-08-21T01:16:54;16.50;99.90
23289;DHT22;11813;50.834;4.280;2022-08-21T01:19:21;16.50;99.90
23289;DHT22;11813;50.834;4.280;2022-08-21T01:21:47;16.50;99.90
23289;DHT22;11813;50.834;4.280;2022-08-21T01:24:13;16.50;99.90
23289;DHT22;11813;50.834;4.280;2022-08-21T01:26:39;16.50;99.90
23289;DHT22;11813;50.834;4.280;2022-08-21T01:29:31;16.40;99.90
23289;DHT22;11813;50.834;4.280;2022-08-21T01:31:59;16.40;99.90
23289;DHT22;11813;50.834;4.280;2022-08-21T01:34:28;16.30;99.90
23289;DHT22;11813;50.834;4.280;2022-08-21T01:36:54;16.40;99.90
23289;DHT22;11813;50.834;4.280;2022-08-21T01:39:19;16.40;99.90
23289;DHT22;11813;50.834;4.280;2022-08-21T01:41:45;16.30;99.90
23289;DHT22;11813;50.834;4.280;2022-08-21T01:44:11;16.30;99.90
23289;DHT22;11813;50.834;4.280;2022-08-21T01:46:36;16.30;99.90
23289;DHT22;11813;50.834;4.280;2022-08-21T01:49:03;16.20;99.90
23289;DHT22;11813;50.834;4.280;2022-08-21T01:51:29;16.20;99.90
23289;DHT22;11813;50.834;4.280;2022-08-21T01:53:54;16.20;99.90
23289;DHT22;11813;50.834;4.280;2022-08-21T01:56:20;16.10;99.90
23289;DHT22;11813;50.834;4.280;2022-08-21T01:58:46;16.10;99.90
23289;DHT22;11813;50.834;4.280;2022-08-21T02:01:14;16.10;99.90
23289;DHT22;11813;50.834;4.280;2022-08-21T02:03:40;16.10;99.90
23289;DHT22;11813;50.834;4.280;2022-08-21T02:06:07;16.10;99.90
23289;DHT22;11813;50.834;4.280;2022-08-21T02:08:33;16.10;99.90
23289;DHT22;11813;50.834;4.280;2022-08-21T02:10:59;16.00;99.90
23289;DHT22;11813;50.834;4.280;2022-08-21T02:13:25;16.00;99.90
23289;DHT22;11813;50.834;4.280;2022-08-21T02:15:51;16.00;99.90
23289;DHT22;11813;50.834;4.280;2022-08-21T02:18:17;16.00;99.90
23289;DHT22;11813;50.834;4.280;2022-08-21T02:20:46;16.00;99.90
23289;DHT22;11813;50.834;4.280;2022-08-21T02:23:13;16.00;99.90
23289;DHT22;11813;50.834;4.280;2022-08-21T02:25:39;16.00;99.90
23289;DHT22;11813;50.834;4.280;2022-08-21T02:28:10;15.90;99.90
23289;DHT22;11813;50.834;4.280;2022-08-21T02:30:41;15.90;99.90
23289;DHT22;11813;50.834;4.280;2022-08-21T02:33:08;15.90;99.90
23289;DHT22;11813;50.834;4.280;2022-08-21T02:35:35;15.90;99.90
23289;DHT22;11813;50.834;4.280;2022-08-21T02:38:04;15.90;99.90
23289;DHT22;11813;50.834;4.280;2022-08-21T02:40:33;15.90;99.90
23289;DHT22;11813;50.834;4.280;2022-08-21T02:43:00;15.90;99.90
23289;DHT22;11813;50.834;4.280;2022-08-21T02:45:26;15.80;99.90
23289;DHT22;11813;50.834;4.280;2022-08-21T02:48:00;15.80;99.90
23289;DHT22;11813;50.834;4.280;2022-08-21T02:50:32;15.80;99.90
23289;DHT22;11813;50.834;4.280;2022-08-21T02:52:59;15.70;99.90
23289;DHT22;11813;50.834;4.280;2022-08-21T02:55:27;15.70;99.90
23289;DHT22;11813;50.834;4.280;2022-08-21T02:57:55;15.70;99.90
23289;DHT22;11813;50.834;4.280;2022-08-21T03:00:23;15.70;99.90
23289;DHT22;11813;50.834;4.280;2022-08-21T03:02:50;15.60;99.90
23289;DHT22;11813;50.834;4.280;2022-08-21T03:05:17;15.60;99.90
23289;DHT22;11813;50.834;4.280;2022-08-21T03:07:44;15.60;99.90
23289;DHT22;11813;50.834;4.280;2022-08-21T03:10:10;15.60;99.90
23289;DHT22;11813;50.834;4.280;2022-08-21T03:12:36;15.60;99.90
23289;DHT22;11813;50.834;4.280;2022-08-21T03:15:08;15.60;99.90
23289;DHT22;11813;50.834;4.280;2022-08-21T03:17:35;15.60;99.90
23289;DHT22;11813;50.834;4.280;2022-08-21T03:20:02;15.60;99.90
23289;DHT22;11813;50.834;4.280;2022-08-21T03:22:28;15.60;99.90
23289;DHT22;11813;50.834;4.280;2022-08-21T03:24:54;15.60;99.90
23289;DHT22;11813;50.834;4.280;2022-08-21T03:27:20;15.50;99.90
23289;DHT22;11813;50.834;4.280;2022-08-21T03:29:45;15.60;99.90
23289;DHT22;11813;50.834;4.280;2022-08-21T03:32:11;15.50;99.90
23289;DHT22;11813;50.834;4.280;2022-08-21T03:34:38;15.50;99.90
23289;DHT22;11813;50.834;4.280;2022-08-21T03:37:06;15.50;99.90
23289;DHT22;11813;50.834;4.280;2022-08-21T03:39:32;15.40;99.90
23289;DHT22;11813;50.834;4.280;2022-08-21T03:41:58;15.40;99.90
23289;DHT22;11813;50.834;4.280;2022-08-21T03:44:25;15.40;99.90
23289;DHT22;11813;50.834;4.280;2022-08-21T03:46:54;15.40;99.90
23289;DHT22;11813;50.834;4.280;2022-08-21T03:49:21;15.30;99.90
23289;DHT22;11813;50.834;4.280;2022-08-21T03:51:46;15.30;99.90
23289;DHT22;11813;50.834;4.280;2022-08-21T03:54:12;15.30;99.90
23289;DHT22;11813;50.834;4.280;2022-08-21T03:56:38;15.30;99.90
23289;DHT22;11813;50.834;4.280;2022-08-21T03:59:05;15.20;99.90
23289;DHT22;11813;50.834;4.280;2022-08-21T04:01:31;15.30;99.90
23289;DHT22;11813;50.834;4.280;2022-08-21T04:03:57;15.20;99.90
23289;DHT22;11813;50.834;4.280;2022-08-21T04:06:23;15.20;99.90
23289;DHT22;11813;50.834;4.280;2022-08-21T04:08:48;15.30;99.90
23289;DHT22;11813;50.834;4.280;2022-08-21T04:11:14;15.30;99.90
23289;DHT22;11813;50.834;4.280;2022-08-21T04:13:40;15.30;99.90
23289;DHT22;11813;50.834;4.280;2022-08-21T04:16:06;15.30;99.90
23289;DHT22;11813;50.834;4.280;2022-08-21T04:18:32;15.20;99.90
23289;DHT22;11813;50.834;4.280;2022-08-21T04:20:59;15.10;99.90
23289;DHT22;11813;50.834;4.280;2022-08-21T04:23:25;15.10;99.90
23289;DHT22;11813;50.834;4.280;2022-08-21T04:25:53;15.00;99.90
23289;DHT22;11813;50.834;4.280;2022-08-21T04:28:19;15.00;99.90
23289;DHT22;11813;50.834;4.280;2022-08-21T04:30:45;15.00;99.90
23289;DHT22;11813;50.834;4.280;2022-08-21T04:33:11;15.10;99.90
23289;DHT22;11813;50.834;4.280;2022-08-21T04:35:36;15.10;99.90
23289;DHT22;11813;50.834;4.280;2022-08-21T04:38:02;15.00;99.90
23289;DHT22;11813;50.834;4.280;2022-08-21T04:40:28;15.10;99.90
23289;DHT22;11813;50.834;4.280;2022-08-21T04:42:58;15.10;99.90
23289;DHT22;11813;50.834;4.280;2022-08-21T04:45:40;15.10;99.90
23289;DHT22;11813;50.834;4.280;2022-08-21T04:48:08;15.10;99.90
23289;DHT22;11813;50.834;4.280;2022-08-21T04:51:02;15.00;99.90
23289;DHT22;11813;50.834;4.280;2022-08-21T04:53:41;15.00;99.90
23289;DHT22;11813;50.834;4.280;2022-08-21T04:56:12;15.10;99.90
23289;DHT22;11813;50.834;4.280;2022-08-21T04:58:38;15.00;99.90
23289;DHT22;11813;50.834;4.280;2022-08-21T05:01:08;14.90;99.90
23289;DHT22;11813;50.834;4.280;2022-08-21T05:03:36;14.90;99.90
23289;DHT22;11813;50.834;4.280;2022-08-21T05:06:08;14.90;99.90
23289;DHT22;11813;50.834;4.280;2022-08-21T05:08:34;15.00;99.90
23289;DHT22;11813;50.834;4.280;2022-08-21T05:11:03;15.00;99.90
23289;DHT22;11813;50.834;4.280;2022-08-21T05:13:29;15.10;99.90
23289;DHT22;11813;50.834;4.280;2022-08-21T05:15:55;15.00;99.90
23289;DHT22;11813;50.834;4.280;2022-08-21T05:18:21;15.00;99.90
23289;DHT22;11813;50.834;4.280;2022-08-21T05:20:47;15.00;99.90
23289;DHT22;11813;50.834;4.280;2022-08-21T05:23:13;15.00;99.90
23289;DHT22;11813;50.834;4.280;2022-08-21T05:25:40;14.90;99.90
23289;DHT22;11813;50.834;4.280;2022-08-21T05:28:05;15.00;99.90
23289;DHT22;11813;50.834;4.280;2022-08-21T05:30:32;15.00;99.90
23289;DHT22;11813;50.834;4.280;2022-08-21T05:32:58;15.10;99.90
23289;DHT22;11813;50.834;4.280;2022-08-21T05:35:25;15.20;99.90
23289;DHT22;11813;50.834;4.280;2022-08-21T05:37:51;15.10;99.90
23289;DHT22;11813;50.834;4.280;2022-08-21T05:40:17;15.20;99.90
23289;DHT22;11813;50.834;4.280;2022-08-21T05:42:43;15.10;99.90
23289;DHT22;11813;50.834;4.280;2022-08-21T05:45:09;15.10;99.90
23289;DHT22;11813;50.834;4.280;2022-08-21T05:47:35;15.10;99.90
23289;DHT22;11813;50.834;4.280;2022-08-21T05:50:01;15.10;99.90
23289;DHT22;11813;50.834;4.280;2022-08-21T05:52:26;15.20;99.90
23289;DHT22;11813;50.834;4.280;2022-08-21T05:54:52;15.20;99.90
23289;DHT22;11813;50.834;4.280;2022-08-21T05:57:20;15.30;99.90
23289;DHT22;11813;50.834;4.280;2022-08-21T05:59:45;15.30;99.90
23289;DHT22;11813;50.834;4.280;2022-08-21T06:02:11;15.40;99.90
23289;DHT22;11813;50.834;4.280;2022-08-21T06:04:40;15.40;99.90
23289;DHT22;11813;50.834;4.280;2022-08-21T06:07:06;15.50;99.90
23289;DHT22;11813;50.834;4.280;2022-08-21T06:09:32;15.60;99.90
23289;DHT22;11813;50.834;4.280;2022-08-21T06:12:03;15.70;99.90
23289;DHT22;11813;50.834;4.280;2022-08-21T06:14:29;15.70;99.90
23289;DHT22;11813;50.834;4.280;2022-08-21T06:16:54;15.80;99.90
23289;DHT22;11813;50.834;4.280;2022-08-21T06:19:26;15.80;99.90
23289;DHT22;11813;50.834;4.280;2022-08-21T06:21:51;15.90;99.90
23289;DHT22;11813;50.834;4.280;2022-08-21T06:24:17;15.90;99.90
23289;DHT22;11813;50.834;4.280;2022-08-21T06:26:43;16.00;99.90
23289;DHT22;11813;50.834;4.280;2022-08-21T06:29:08;16.10;99.90
23289;DHT22;11813;50.834;4.280;2022-08-21T06:31:39;16.10;99.90
23289;DHT22;11813;50.834;4.280;2022-08-21T06:34:04;16.30;99.90
23289;DHT22;11813;50.834;4.280;2022-08-21T06:36:30;16.40;99.90
23289;DHT22;11813;50.834;4.280;2022-08-21T06:38:55;16.60;99.90
23289;DHT22;11813;50.834;4.280;2022-08-21T06:41:21;16.70;99.90
23289;DHT22;11813;50.834;4.280;2022-08-21T06:43:47;16.90;99.90
23289;DHT22;11813;50.834;4.280;2022-08-21T06:46:12;17.10;99.90
23289;DHT22;11813;50.834;4.280;2022-08-21T06:48:38;17.20;99.90
23289;DHT22;11813;50.834;4.280;2022-08-21T06:51:04;17.40;99.90
23289;DHT22;11813;50.834;4.280;2022-08-21T06:53:29;17.50;99.90
23289;DHT22;11813;50.834;4.280;2022-08-21T06:55:55;17.70;99.90
23289;DHT22;11813;50.834;4.280;2022-08-21T06:58:21;17.90;99.90
23289;DHT22;11813;50.834;4.280;2022-08-21T07:00:48;18.00;99.90
23289;DHT22;11813;50.834;4.280;2022-08-21T07:03:30;18.20;99.90
23289;DHT22;11813;50.834;4.280;2022-08-21T07:05:56;18.30;99.90
23289;DHT22;11813;50.834;4.280;2022-08-21T07:08:24;18.50;99.90
23289;DHT22;11813;50.834;4.280;2022-08-21T07:10:51;18.80;99.90
23289;DHT22;11813;50.834;4.280;2022-08-21T07:13:17;18.90;99.90
23289;DHT22;11813;50.834;4.280;2022-08-21T07:15:42;19.10;99.90
23289;DHT22;11813;50.834;4.280;2022-08-21T07:18:08;19.20;99.90
23289;DHT22;11813;50.834;4.280;2022-08-21T07:20:34;19.20;99.90
23289;DHT22;11813;50.834;4.280;2022-08-21T07:23:03;19.30;99.90
23289;DHT22;11813;50.834;4.280;2022-08-21T07:25:30;19.50;99.90
23289;DHT22;11813;50.834;4.280;2022-08-21T07:27:55;19.60;99.90
23289;DHT22;11813;50.834;4.280;2022-08-21T07:30:21;19.70;99.90
23289;DHT22;11813;50.834;4.280;2022-08-21T07:32:47;19.70;99.90
23289;DHT22;11813;50.834;4.280;2022-08-21T07:35:15;19.90;99.90
23289;DHT22;11813;50.834;4.280;2022-08-21T07:37:40;19.80;99.90
23289;DHT22;11813;50.834;4.280;2022-08-21T07:40:07;19.90;99.90
23289;DHT22;11813;50.834;4.280;2022-08-21T07:42:32;20.00;99.90
23289;DHT22;11813;50.834;4.280;2022-08-21T07:44:58;20.10;99.90
23289;DHT22;11813;50.834;4.280;2022-08-21T07:47:23;20.10;99.90
23289;DHT22;11813;50.834;4.280;2022-08-21T07:49:49;20.10;99.90
23289;DHT22;11813;50.834;4.280;2022-08-21T07:52:15;20.20;99.90
23289;DHT22;11813;50.834;4.280;2022-08-21T07:54:41;20.20;99.90
23289;DHT22;11813;50.834;4.280;2022-08-21T07:57:06;20.20;99.90
23289;DHT22;11813;50.834;4.280;2022-08-21T07:59:32;20.30;99.90
23289;DHT22;11813;50.834;4.280;2022-08-21T08:01:57;20.40;99.90
23289;DHT22;11813;50.834;4.280;2022-08-21T08:04:23;20.50;99.90
23289;DHT22;11813;50.834;4.280;2022-08-21T08:06:49;20.60;99.90
23289;DHT22;11813;50.834;4.280;2022-08-21T08:09:15;20.60;99.90
23289;DHT22;11813;50.834;4.280;2022-08-21T08:11:42;20.70;99.90
23289;DHT22;11813;50.834;4.280;2022-08-21T08:14:11;20.60;99.90
23289;DHT22;11813;50.834;4.280;2022-08-21T08:16:37;20.60;99.90
23289;DHT22;11813;50.834;4.280;2022-08-21T08:19:02;20.80;99.90
23289;DHT22;11813;50.834;4.280;2022-08-21T08:21:28;20.80;99.90
23289;DHT22;11813;50.834;4.280;2022-08-21T08:23:54;20.90;99.90
23289;DHT22;11813;50.834;4.280;2022-08-21T08:26:20;20.90;99.90
23289;DHT22;11813;50.834;4.280;2022-08-21T08:28:46;21.00;99.90
23289;DHT22;11813;50.834;4.280;2022-08-21T08:31:13;21.00;99.90
23289;DHT22;11813;50.834;4.280;2022-08-21T08:33:39;21.20;99.90
23289;DHT22;11813;50.834;4.280;2022-08-21T08:36:05;21.30;99.90
23289;DHT22;11813;50.834;4.280;2022-08-21T08:38:37;21.40;99.90
23289;DHT22;11813;50.834;4.280;2022-08-21T08:41:12;21.40;99.90
23289;DHT22;11813;50.834;4.280;2022-08-21T08:43:40;21.50;99.90
23289;DHT22;11813;50.834;4.280;2022-08-21T08:46:13;21.60;99.90
23289;DHT22;11813;50.834;4.280;2022-08-21T08:48:53;21.70;99.90
23289;DHT22;11813;50.834;4.280;2022-08-21T08:51:48;21.80;99.90
23289;DHT22;11813;50.834;4.280;2022-08-21T08:54:48;21.90;99.90
23289;DHT22;11813;50.834;4.280;2022-08-21T08:57:20;22.00;99.90
23289;DHT22;11813;50.834;4.280;2022-08-21T08:59:50;22.20;99.90
23289;DHT22;11813;50.834;4.280;2022-08-21T09:02:17;22.30;99.90
23289;DHT22;11813;50.834;4.280;2022-08-21T09:04:45;22.30;99.90
23289;DHT22;11813;50.834;4.280;2022-08-21T09:14:58;22.40;99.90
23289;DHT22;11813;50.834;4.280;2022-08-21T09:25:27;23.00;99.90
23289;DHT22;11813;50.834;4.280;2022-08-21T09:27:54;23.20;99.90
23289;DHT22;11813;50.834;4.280;2022-08-21T09:30:28;23.20;99.90
23289;DHT22;11813;50.834;4.280;2022-08-21T09:32:54;23.20;99.90
23289;DHT22;11813;50.834;4.280;2022-08-21T09:35:21;23.40;99.90
23289;DHT22;11813;50.834;4.280;2022-08-21T09:37:54;23.50;99.90
23289;DHT22;11813;50.834;4.280;2022-08-21T09:43:20;23.60;99.90
23289;DHT22;11813;50.834;4.280;2022-08-21T09:45:48;23.70;99.90
23289;DHT22;11813;50.834;4.280;2022-08-21T09:48:23;23.90;99.90
23289;DHT22;11813;50.834;4.280;2022-08-21T09:50:51;24.00;99.90
23289;DHT22;11813;50.834;4.280;2022-08-21T09:53:28;24.00;99.90
23289;DHT22;11813;50.834;4.280;2022-08-21T09:55:59;24.10;99.90
23289;DHT22;11813;50.834;4.280;2022-08-21T09:58:47;24.00;99.90
23289;DHT22;11813;50.834;4.280;2022-08-21T10:01:19;24.00;99.90
23289;DHT22;11813;50.834;4.280;2022-08-21T10:03:45;24.10;99.90
23289;DHT22;11813;50.834;4.280;2022-08-21T10:06:25;24.00;99.90
23289;DHT22;11813;50.834;4.280;2022-08-21T10:11:32;24.00;99.90
23289;DHT22;11813;50.834;4.280;2022-08-21T10:22:20;24.90;99.90
23289;DHT22;11813;50.834;4.280;2022-08-21T10:39:14;25.20;99.90
23289;DHT22;11813;50.834;4.280;2022-08-21T10:44:41;25.40;99.90
23289;DHT22;11813;50.834;4.280;2022-08-21T10:47:17;25.10;99.90
23289;DHT22;11813;50.834;4.280;2022-08-21T10:55:43;25.10;99.90
23289;DHT22;11813;50.834;4.280;2022-08-21T10:58:12;25.20;99.90
23289;DHT22;11813;50.834;4.280;2022-08-21T11:00:48;25.20;99.90
23289;DHT22;11813;50.834;4.280;2022-08-21T11:06:19;24.60;99.90
23289;DHT22;11813;50.834;4.280;2022-08-21T11:08:50;24.60;99.90
23289;DHT22;11813;50.834;4.280;2022-08-21T11:14:24;24.70;99.90
23289;DHT22;11813;50.834;4.280;2022-08-21T11:17:09;24.90;99.90
23289;DHT22;11813;50.834;4.280;2022-08-21T11:19:56;25.50;99.90
23289;DHT22;11813;50.834;4.280;2022-08-21T11:22:50;25.30;99.90
23289;DHT22;11813;50.834;4.280;2022-08-21T11:25:20;25.40;99.90
23289;DHT22;11813;50.834;4.280;2022-08-21T11:27:56;25.20;99.90
23289;DHT22;11813;50.834;4.280;2022-08-21T11:30:30;25.40;99.90
23289;DHT22;11813;50.834;4.280;2022-08-21T11:38:34;25.50;99.90
23289;DHT22;11813;50.834;4.280;2022-08-21T11:41:28;25.80;99.90
23289;DHT22;11813;50.834;4.280;2022-08-21T11:44:21;25.80;99.90
23289;DHT22;11813;50.834;4.280;2022-08-21T11:47:11;25.90;99.90
23289;DHT22;11813;50.834;4.280;2022-08-21T11:50:13;26.10;99.90
23289;DHT22;11813;50.834;4.280;2022-08-21T11:55:15;26.80;99.90
23289;DHT22;11813;50.834;4.280;2022-08-21T11:58:27;27.20;99.90
23289;DHT22;11813;50.834;4.280;2022-08-21T12:00:55;28.00;99.90
23289;DHT22;11813;50.834;4.280;2022-08-21T12:03:35;28.50;99.90
23289;DHT22;11813;50.834;4.280;2022-08-21T12:06:09;28.40;99.90
23289;DHT22;11813;50.834;4.280;2022-08-21T12:08:44;28.00;99.90
23289;DHT22;11813;50.834;4.280;2022-08-21T12:16:36;28.20;99.90
23289;DHT22;11813;50.834;4.280;2022-08-21T12:19:07;27.70;99.90
23289;DHT22;11813;50.834;4.280;2022-08-21T12:21:34;27.70;99.90
23289;DHT22;11813;50.834;4.280;2022-08-21T12:24:31;27.90;99.90
23289;DHT22;11813;50.834;4.280;2022-08-21T12:27:00;28.10;99.90
23289;DHT22;11813;50.834;4.280;2022-08-21T12:29:32;28.20;99.90
23289;DHT22;11813;50.834;4.280;2022-08-21T12:33:05;27.50;99.90
23289;DHT22;11813;50.834;4.280;2022-08-21T12:35:17;27.60;99.90
23289;DHT22;11813;50.834;4.280;2022-08-21T12:37:46;27.10;99.90
23289;DHT22;11813;50.834;4.280;2022-08-21T12:40:37;26.80;99.90
23289;DHT22;11813;50.834;4.280;2022-08-21T12:43:05;26.60;99.90
23289;DHT22;11813;50.834;4.280;2022-08-21T12:45:42;26.20;99.90
23289;DHT22;11813;50.834;4.280;2022-08-21T12:51:42;26.00;99.90
23289;DHT22;11813;50.834;4.280;2022-08-21T12:54:08;26.10;99.90
23289;DHT22;11813;50.834;4.280;2022-08-21T12:56:34;26.00;99.90
23289;DHT22;11813;50.834;4.280;2022-08-21T12:59:05;25.80;99.90
23289;DHT22;11813;50.834;4.280;2022-08-21T13:01:54;25.90;99.90
23289;DHT22;11813;50.834;4.280;2022-08-21T13:04:38;25.60;99.90
23289;DHT22;11813;50.834;4.280;2022-08-21T13:07:11;25.50;99.90
23289;DHT22;11813;50.834;4.280;2022-08-21T13:09:59;25.30;99.90
23289;DHT22;11813;50.834;4.280;2022-08-21T13:12:26;25.60;99.90
23289;DHT22;11813;50.834;4.280;2022-08-21T13:14:56;25.90;99.90
23289;DHT22;11813;50.834;4.280;2022-08-21T13:17:24;26.00;99.90
23289;DHT22;11813;50.834;4.280;2022-08-21T13:19:59;25.90;99.90
23289;DHT22;11813;50.834;4.280;2022-08-21T13:22:27;26.00;99.90
23289;DHT22;11813;50.834;4.280;2022-08-21T13:24:53;26.20;99.90
23289;DHT22;11813;50.834;4.280;2022-08-21T13:27:28;26.10;99.90
23289;DHT22;11813;50.834;4.280;2022-08-21T13:30:09;25.90;99.90
23289;DHT22;11813;50.834;4.280;2022-08-21T13:32:46;25.90;99.90
23289;DHT22;11813;50.834;4.280;2022-08-21T13:35:20;26.10;99.90
23289;DHT22;11813;50.834;4.280;2022-08-21T13:37:47;26.20;99.90
23289;DHT22;11813;50.834;4.280;2022-08-21T13:40:17;26.70;99.90
23289;DHT22;11813;50.834;4.280;2022-08-21T13:42:45;27.20;99.90
23289;DHT22;11813;50.834;4.280;2022-08-21T13:45:27;27.70;99.90
23289;DHT22;11813;50.834;4.280;2022-08-21T13:47:53;27.60;99.90
23289;DHT22;11813;50.834;4.280;2022-08-21T13:50:21;26.80;99.90
23289;DHT22;11813;50.834;4.280;2022-08-21T13:52:59;26.80;99.90
23289;DHT22;11813;50.834;4.280;2022-08-21T13:55:25;26.10;99.90
23289;DHT22;11813;50.834;4.280;2022-08-21T13:58:00;26.00;99.90
23289;DHT22;11813;50.834;4.280;2022-08-21T14:00:29;26.20;99.90
23289;DHT22;11813;50.834;4.280;2022-08-21T14:03:05;26.60;99.90
23289;DHT22;11813;50.834;4.280;2022-08-21T14:05:35;26.80;99.90
23289;DHT22;11813;50.834;4.280;2022-08-21T14:08:14;26.80;99.90
23289;DHT22;11813;50.834;4.280;2022-08-21T14:10:47;26.90;99.90
23289;DHT22;11813;50.834;4.280;2022-08-21T14:15:57;26.50;99.90
23289;DHT22;11813;50.834;4.280;2022-08-21T14:18:23;26.30;99.90
23289;DHT22;11813;50.834;4.280;2022-08-21T14:20:51;26.50;99.90
23289;DHT22;11813;50.834;4.280;2022-08-21T14:23:28;26.70;99.90
23289;DHT22;11813;50.834;4.280;2022-08-21T14:25:59;27.00;99.90
23289;DHT22;11813;50.834;4.280;2022-08-21T14:28:39;27.20;99.90
23289;DHT22;11813;50.834;4.280;2022-08-21T14:31:18;27.60;99.90
23289;DHT22;11813;50.834;4.280;2022-08-21T14:33:44;28.20;99.90
23289;DHT22;11813;50.834;4.280;2022-08-21T14:36:11;28.60;99.90
23289;DHT22;11813;50.834;4.280;2022-08-21T14:38:39;28.40;99.90
23289;DHT22;11813;50.834;4.280;2022-08-21T14:41:25;28.50;99.90
23289;DHT22;11813;50.834;4.280;2022-08-21T14:43:54;28.60;99.90
23289;DHT22;11813;50.834;4.280;2022-08-21T14:46:28;28.40;99.90
23289;DHT22;11813;50.834;4.280;2022-08-21T14:48:54;28.50;99.90
23289;DHT22;11813;50.834;4.280;2022-08-21T14:51:20;28.50;99.90
23289;DHT22;11813;50.834;4.280;2022-08-21T14:53:47;28.50;99.90
23289;DHT22;11813;50.834;4.280;2022-08-21T14:56:13;28.60;99.90
23289;DHT22;11813;50.834;4.280;2022-08-21T14:58:42;28.60;99.90
23289;DHT22;11813;50.834;4.280;2022-08-21T15:01:09;28.50;99.90
23289;DHT22;11813;50.834;4.280;2022-08-21T15:03:36;28.40;99.90
23289;DHT22;11813;50.834;4.280;2022-08-21T15:06:03;28.20;99.90
23289;DHT22;11813;50.834;4.280;2022-08-21T15:08:30;28.00;99.90
23289;DHT22;11813;50.834;4.280;2022-08-21T15:10:56;27.60;99.90
23289;DHT22;11813;50.834;4.280;2022-08-21T15:13:22;27.60;99.90
23289;DHT22;11813;50.834;4.280;2022-08-21T15:15:49;27.50;99.90
23289;DHT22;11813;50.834;4.280;2022-08-21T15:18:24;27.40;99.90
23289;DHT22;11813;50.834;4.280;2022-08-21T15:20:50;27.40;99.90
23289;DHT22;11813;50.834;4.280;2022-08-21T15:23:17;27.40;99.90
23289;DHT22;11813;50.834;4.280;2022-08-21T15:25:45;27.40;99.90
23289;DHT22;11813;50.834;4.280;2022-08-21T15:28:11;27.30;99.90
23289;DHT22;11813;50.834;4.280;2022-08-21T15:30:39;27.30;99.90
23289;DHT22;11813;50.834;4.280;2022-08-21T15:33:06;27.10;99.90
23289;DHT22;11813;50.834;4.280;2022-08-21T15:35:32;27.20;99.90
23289;DHT22;11813;50.834;4.280;2022-08-21T15:37:58;27.10;99.90
23289;DHT22;11813;50.834;4.280;2022-08-21T15:40:24;27.00;99.90
23289;DHT22;11813;50.834;4.280;2022-08-21T15:42:51;26.90;99.90
23289;DHT22;11813;50.834;4.280;2022-08-21T15:45:19;26.90;99.90
23289;DHT22;11813;50.834;4.280;2022-08-21T15:47:45;26.80;99.90
23289;DHT22;11813;50.834;4.280;2022-08-21T15:50:11;26.80;99.90
23289;DHT22;11813;50.834;4.280;2022-08-21T15:52:37;26.70;99.90
23289;DHT22;11813;50.834;4.280;2022-08-21T15:55:05;26.80;99.90
23289;DHT22;11813;50.834;4.280;2022-08-21T15:57:31;26.70;99.90
23289;DHT22;11813;50.834;4.280;2022-08-21T15:59:59;26.90;99.90
23289;DHT22;11813;50.834;4.280;2022-08-21T16:02:32;26.70;99.90
23289;DHT22;11813;50.834;4.280;2022-08-21T16:04:58;26.60;99.90
23289;DHT22;11813;50.834;4.280;2022-08-21T16:07:24;26.60;99.90
23289;DHT22;11813;50.834;4.280;2022-08-21T16:09:50;26.70;99.90
23289;DHT22;11813;50.834;4.280;2022-08-21T16:12:21;26.80;99.90
23289;DHT22;11813;50.834;4.280;2022-08-21T16:14:48;26.80;99.90
23289;DHT22;11813;50.834;4.280;2022-08-21T16:17:15;26.90;99.90
23289;DHT22;11813;50.834;4.280;2022-08-21T16:19:41;26.80;99.90
23289;DHT22;11813;50.834;4.280;2022-08-21T16:22:07;26.70;99.90
23289;DHT22;11813;50.834;4.280;2022-08-21T16:24:32;26.90;99.90
23289;DHT22;11813;50.834;4.280;2022-08-21T16:26:58;27.00;99.90
23289;DHT22;11813;50.834;4.280;2022-08-21T16:29:26;27.10;99.90
23289;DHT22;11813;50.834;4.280;2022-08-21T16:31:55;27.00;99.90
23289;DHT22;11813;50.834;4.280;2022-08-21T16:34:20;27.10;99.90
23289;DHT22;11813;50.834;4.280;2022-08-21T16:36:46;27.10;99.90
23289;DHT22;11813;50.834;4.280;2022-08-21T16:39:12;27.20;99.90
23289;DHT22;11813;50.834;4.280;2022-08-21T16:41:38;27.00;99.90
23289;DHT22;11813;50.834;4.280;2022-08-21T16:44:05;26.80;99.90
23289;DHT22;11813;50.834;4.280;2022-08-21T16:46:33;26.60;99.90
23289;DHT22;11813;50.834;4.280;2022-08-21T16:49:00;26.50;99.90
23289;DHT22;11813;50.834;4.280;2022-08-21T16:51:26;26.60;99.90
23289;DHT22;11813;50.834;4.280;2022-08-21T16:53:52;26.60;99.90
23289;DHT22;11813;50.834;4.280;2022-08-21T16:56:18;26.70;99.90
23289;DHT22;11813;50.834;4.280;2022-08-21T16:58:46;26.70;99.90
23289;DHT22;11813;50.834;4.280;2022-08-21T17:01:15;26.70;99.90